»·PEaware :: WAT169 KSNA-KLAS

WAT169 :: KSNA-KLAS

FLIGHT INFORMATION

Flight Status: Arrived
Operator:
Walker Air Transport
More flights by this operator :: More flights under this callsign
Pilot: Marty P. (27464)
Aircraft: BOEING 737-800
(B738)
More flights by this aircraft type
Origin: KSNA John Wayne-Orange Co
United States
Destination: KLAS McCarran Intl
United States
More flights between these airports :: More routes between these airports
Route: FINZZ3 MISEN KEPEC6
File this flight plan on PilotEdge
Remarks:
Altitude:
(Current/Filed)
27,000ft
Speed:
(Current/Filed)
480kts
Departed: 03-Jan-21 04:49 PM
Arrived: 03-Jan-21 05:35 PM
Distance/Time
Traveled:
197nm/0:46
Distance/Time
To Go:
Arrived

Flight Plot

Page will automatically refresh every two minutes.

Flight plan parsing failed; only flown route is shown


Map Options




Map Legend


Flown Route
Filed Route
Departure Airport
Arrival Airport
Navaid (VOR, NDB)
Fix

Horizontal Profiles

Position Reports

Time Latitude Longitude Heading Altitude Ground
Speed
03-Jan-21 16:28 33.675005 -117.865072 118 66ft 0kts
03-Jan-21 16:29 33.675005 -117.865072 118 66ft 0kts
03-Jan-21 16:30 33.675005 -117.865072 118 66ft 0kts
03-Jan-21 16:31 33.675005 -117.865072 118 66ft 0kts
03-Jan-21 16:32 33.675005 -117.865072 118 66ft 0kts
03-Jan-21 16:33 33.675005 -117.865072 118 66ft 0kts
03-Jan-21 16:34 33.675005 -117.865072 118 66ft 0kts
03-Jan-21 16:35 33.675005 -117.865072 118 66ft 0kts
03-Jan-21 16:36 33.675005 -117.865072 118 66ft 0kts
03-Jan-21 16:37 33.675005 -117.865072 118 66ft 0kts
03-Jan-21 16:38 33.675005 -117.865073 118 66ft 0kts
03-Jan-21 16:39 33.675165 -117.865491 92 66ft 2kts
03-Jan-21 16:40 33.674924 -117.865963 27 66ft 1kts
03-Jan-21 16:41 33.674919 -117.865966 27 66ft 0kts
03-Jan-21 16:42 33.674919 -117.865966 27 66ft 0kts
03-Jan-21 16:43 33.674932 -117.865958 27 66ft 0kts
03-Jan-21 16:44 33.677812 -117.864128 27 66ft 25kts
03-Jan-21 16:45 33.681121 -117.864131 298 66ft 0kts
03-Jan-21 16:46 33.681506 -117.865031 273 66ft 2kts
03-Jan-21 16:47 33.681314 -117.865278 208 66ft 0kts
03-Jan-21 16:48 33.652186 -117.883417 205 1177ft 175kts
03-Jan-21 16:49 33.595991 -117.896137 189 3128ft 242kts
03-Jan-21 16:50 33.538462 -117.935922 224 4173ft 251kts
03-Jan-21 16:51 33.506043 -118.006709 273 7886ft 254kts
03-Jan-21 16:52 33.539852 -118.079330 317 10986ft 291kts
03-Jan-21 16:53 33.626499 -118.105370 13 13501ft 355kts
03-Jan-21 16:54 33.718446 -118.054829 22 16617ft 374kts
03-Jan-21 16:55 33.813916 -117.998923 22 19225ft 392kts
03-Jan-21 16:56 33.911899 -117.934787 31 21443ft 414kts
03-Jan-21 16:57 34.007544 -117.851173 34 23446ft 431kts
03-Jan-21 16:59 34.098583 -117.753062 44 25342ft 447kts
03-Jan-21 17:00 34.181327 -117.638328 47 27013ft 460kts
03-Jan-21 17:01 34.266823 -117.513531 48 27208ft 503kts
03-Jan-21 17:02 34.357365 -117.378743 48 27205ft 503kts
03-Jan-21 17:03 34.444824 -117.247819 48 27206ft 506kts
03-Jan-21 17:04 34.533105 -117.115263 48 27208ft 504kts
03-Jan-21 17:05 34.622523 -116.984141 47 27215ft 505kts
03-Jan-21 17:06 34.712301 -116.853256 47 27219ft 506kts
03-Jan-21 17:07 34.802219 -116.721688 47 27211ft 500kts
03-Jan-21 17:08 34.897748 -116.604013 35 27219ft 490kts
03-Jan-21 17:09 35.003297 -116.500564 34 27216ft 486kts
03-Jan-21 17:10 35.107522 -116.395260 40 25415ft 494kts
03-Jan-21 17:10 35.185941 -116.298639 42 23230ft 467kts
03-Jan-21 17:11 35.274004 -116.188682 42 20626ft 441kts
03-Jan-21 17:13 35.371816 -116.065784 42 17143ft 424kts
03-Jan-21 17:14 35.452043 -115.964498 42 14711ft 408kts
03-Jan-21 17:15 35.529739 -115.866087 42 12975ft 386kts
03-Jan-21 17:15 35.586328 -115.794020 42 12988ft 321kts
03-Jan-21 17:17 35.655238 -115.706295 41 12999ft 304kts
03-Jan-21 17:18 35.713395 -115.631664 41 13009ft 302kts
03-Jan-21 17:18 35.768754 -115.582256 16 13010ft 293kts
03-Jan-21 17:19 35.848088 -115.570243 358 13008ft 287kts
03-Jan-21 17:20 35.928306 -115.565620 4 12997ft 289kts
03-Jan-21 17:21 35.991019 -115.503670 63 11181ft 313kts
03-Jan-21 17:22 36.019631 -115.411512 65 10990ft 266kts
03-Jan-21 17:23 36.027259 -115.317724 93 10145ft 276kts
03-Jan-21 17:24 36.020225 -115.225087 93 9139ft 264kts
03-Jan-21 17:25 36.014011 -115.135415 93 8417ft 266kts
03-Jan-21 17:26 36.008194 -115.046303 93 7226ft 249kts
03-Jan-21 17:27 36.003324 -114.963345 93 5891ft 236kts
03-Jan-21 17:28 36.014430 -114.894751 15 5005ft 190kts
03-Jan-21 17:29 36.063208 -114.908844 312 4990ft 191kts
03-Jan-21 17:30 36.073565 -114.972141 270 4513ft 186kts
03-Jan-21 17:31 36.073600 -115.028445 270 3636ft 155kts
03-Jan-21 17:32 36.073645 -115.081621 270 2794ft 154kts
03-Jan-21 17:33 36.073678 -115.133949 270 2069ft 128kts
03-Jan-21 17:34 36.074976 -115.146226 320 2105ft 16kts
03-Jan-21 17:35 36.079578 -115.147664 335 2102ft 16kts
03-Jan-21 17:36 36.081024 -115.147639 66 2099ft 0kts

Navigation Log

Ident Type
Flight plan parsing failed, navigation log unavailable